ADDS TAF Board (Experimental) INFO Settings
IDs: Format: Expanded Condensed

KFLL - Ft Lauderdale-Hollyw, FL, US

Issued at 0532 UTC 28 Jul 2016
Updated at 0833 UTC 28 Jul 2016
Time0753Z 28/09Z 28/10Z 28/11Z 28/12Z 28/13Z 28/14Z 28/15Z 28/16Z 28/17Z 28/18Z 28/19Z 28/20Z 28/21Z
Type OBS PRVL PRVL PRVL PRVL PRVL PRVL PRVL PRVL PRVL PRVL PRVL PRVL PRVL
VIS 10 >6 >6 >6 >6 >6 >6 >6 >6 >6 >6 >6 >6 >6
CIG -- -- -- -- -- -- -- -- -- -- -- -- -- --
Cover FEW FEW FEW FEW FEW FEW FEW SCT SCT SCT SCT SCT SCT SCT
FltCat VFR VFR VFR VFR VFR VFR VFR VFR VFR VFR VFR VFR VFR VFR
WX -- -- -- -- -- -- -- -- -- -- -- -- -- --
WDir 120 110 110 110 110 110 110 110 110 110 110 110 120 120
WSpd 6 7 7 7 7 7 7 13 13 13 13 13 12 12
WGst -- -- -- -- -- -- -- 19 19 19 19 19 -- --
R10/28
XWnd -3 -2 -2 -2 -2 -2 -2 -4 -4 -4 -4 -4 -6 -6
XGst -- -- -- -- -- -- -- -6 -6 -6 -6 -6 -- --
HWnd 5 7 7 7 7 7 7 12 12 12 12 12 10 10
HGst -- -- -- -- -- -- -- 18 18 18 18 18 -- --

Raw TAF
KFLL 280532Z 2806/2906 11007KT P6SM FEW030 FEW250
  FM281500 11013G19KT P6SM SCT030 SCT060
  FM282000 12012KT P6SM SCT250
  FM290300 12006KT P6SM FEW250


Raw METAR
KFLL 280753Z 12006KT 10SM FEW027 29/23 A3002 RMK AO2 SLP165 T02890233
KFLL 280653Z 13009KT 10SM SCT025 29/24 A3002 RMK AO2 SLP166 T02890244
KFLL 280553Z 09009KT 10SM FEW025 SCT055 29/24 A3003 RMK AO2 SLP169 T02890239 10294 20289 58009

METAR Board
Radar Display
Forecast Discussion

TAF Board Legend

Potential Impact
Threat None Slight Moderate High
Visibility (sm) ≥5.1 5.1>X≥3 3>X≥1 <1
Ceiling (100 ft) ≥30.1 30.1>X≥10 10>X≥5 <5
Wind Speed (kt) <10 10≤X<20 20≤X<30 ≥30
Wind Gust (kt) <15 15≤X<25 25≤X<35 ≥35
Weather No Wx Reported VCTS,-TS,-FZRA,SN TS,FZRA +TS,+FZRA,+SN